Summerfield, Illinois
Current Conditions -  °F | °C
As of 12:58 PM on Friday 31 Oct 2014 (Local Time) from KBLV Reporting Station
Few Clouds Few Clouds  
Wind Chill: 37°   Ceiling: Unl
Heat Index: 45°   Visibility: 10mi
Dew Point: 27°   Wind: 20mph
Humidity: 49%   Direction: 320°NW
Pressure: 30.26"   Gusts: 33mph
Location:  38.6°N, 89.75°W
Report Text: KBLV 311758Z AUTO 32017G29KT 10SM FEW044 07/M03 A3026 RMK AO2 PK WND 34031/02 SLP252 T00711030 10086 20057 50011
Loading
Personal Weather Stations






























Interactive Weather Map
Tropical Storm Tracking
New forecast layout! Learn more

10-Day Weather Forecast

Advertisements
Track Severe Weather on mobile